sensor_id;sensor_type;location;lat;lon;timestamp;temperature;humidity
4985;DHT22;2509;49.902;8.600;2022-07-03T00:02:40;20.80;99.90
4985;DHT22;2509;49.902;8.600;2022-07-03T00:05:43;20.80;99.90
4985;DHT22;2509;49.902;8.600;2022-07-03T00:08:45;20.70;99.90
4985;DHT22;2509;49.902;8.600;2022-07-03T00:11:48;20.70;99.90
4985;DHT22;2509;49.902;8.600;2022-07-03T00:14:50;20.70;99.90
4985;DHT22;2509;49.902;8.600;2022-07-03T00:17:52;20.60;99.90
4985;DHT22;2509;49.902;8.600;2022-07-03T00:21:02;20.50;99.90
4985;DHT22;2509;49.902;8.600;2022-07-03T00:24:08;20.40;99.90
4985;DHT22;2509;49.902;8.600;2022-07-03T00:27:10;20.40;99.90
4985;DHT22;2509;49.902;8.600;2022-07-03T00:30:12;20.30;99.90
4985;DHT22;2509;49.902;8.600;2022-07-03T00:33:14;20.10;99.90
4985;DHT22;2509;49.902;8.600;2022-07-03T00:36:18;20.00;99.90
4985;DHT22;2509;49.902;8.600;2022-07-03T00:39:19;19.90;99.90
4985;DHT22;2509;49.902;8.600;2022-07-03T00:42:21;19.80;99.90
4985;DHT22;2509;49.902;8.600;2022-07-03T00:45:26;19.70;99.90
4985;DHT22;2509;49.902;8.600;2022-07-03T00:48:28;19.70;99.90
4985;DHT22;2509;49.902;8.600;2022-07-03T00:51:34;19.70;99.90
4985;DHT22;2509;49.902;8.600;2022-07-03T00:54:44;19.60;99.90
4985;DHT22;2509;49.902;8.600;2022-07-03T00:57:48;19.60;99.90
4985;DHT22;2509;49.902;8.600;2022-07-03T01:00:52;19.60;99.90
4985;DHT22;2509;49.902;8.600;2022-07-03T01:04:03;19.50;99.90
4985;DHT22;2509;49.902;8.600;2022-07-03T01:07:11;19.50;99.90
4985;DHT22;2509;49.902;8.600;2022-07-03T01:10:18;19.50;99.90
4985;DHT22;2509;49.902;8.600;2022-07-03T01:13:27;19.40;99.90
4985;DHT22;2509;49.902;8.600;2022-07-03T01:16:37;19.40;99.90
4985;DHT22;2509;49.902;8.600;2022-07-03T01:19:41;19.40;99.90
4985;DHT22;2509;49.902;8.600;2022-07-03T01:22:48;19.40;99.90
4985;DHT22;2509;49.902;8.600;2022-07-03T01:25:52;19.40;99.90
4985;DHT22;2509;49.902;8.600;2022-07-03T01:28:59;19.40;99.90
4985;DHT22;2509;49.902;8.600;2022-07-03T01:32:05;19.30;99.90
4985;DHT22;2509;49.902;8.600;2022-07-03T01:35:08;19.30;99.90
4985;DHT22;2509;49.902;8.600;2022-07-03T01:38:14;19.20;99.90
4985;DHT22;2509;49.902;8.600;2022-07-03T01:41:17;19.20;99.90
4985;DHT22;2509;49.902;8.600;2022-07-03T01:44:21;19.10;99.90
4985;DHT22;2509;49.902;8.600;2022-07-03T01:47:25;19.00;99.90
4985;DHT22;2509;49.902;8.600;2022-07-03T01:50:29;19.00;99.90
4985;DHT22;2509;49.902;8.600;2022-07-03T01:53:32;18.90;99.90
4985;DHT22;2509;49.902;8.600;2022-07-03T01:56:36;18.90;99.90
4985;DHT22;2509;49.902;8.600;2022-07-03T01:59:38;18.80;99.90
4985;DHT22;2509;49.902;8.600;2022-07-03T02:02:43;18.70;99.90
4985;DHT22;2509;49.902;8.600;2022-07-03T02:05:47;18.60;99.90
4985;DHT22;2509;49.902;8.600;2022-07-03T02:08:54;18.60;99.90
4985;DHT22;2509;49.902;8.600;2022-07-03T02:12:02;18.50;99.90
4985;DHT22;2509;49.902;8.600;2022-07-03T02:15:07;18.60;99.90
4985;DHT22;2509;49.902;8.600;2022-07-03T02:18:11;18.60;99.90
4985;DHT22;2509;49.902;8.600;2022-07-03T02:21:19;18.60;99.90
4985;DHT22;2509;49.902;8.600;2022-07-03T02:24:23;18.60;99.90
4985;DHT22;2509;49.902;8.600;2022-07-03T02:27:30;18.70;99.90
4985;DHT22;2509;49.902;8.600;2022-07-03T02:30:35;18.70;99.90
4985;DHT22;2509;49.902;8.600;2022-07-03T02:33:38;18.70;99.90
4985;DHT22;2509;49.902;8.600;2022-07-03T02:36:45;18.70;99.90
4985;DHT22;2509;49.902;8.600;2022-07-03T02:39:51;18.60;99.90
4985;DHT22;2509;49.902;8.600;2022-07-03T02:43:02;18.60;99.90
4985;DHT22;2509;49.902;8.600;2022-07-03T02:46:15;18.60;99.90
4985;DHT22;2509;49.902;8.600;2022-07-03T02:49:43;18.50;99.90
4985;DHT22;2509;49.902;8.600;2022-07-03T02:56:30;18.40;99.90
4985;DHT22;2509;49.902;8.600;2022-07-03T02:59:53;18.40;99.90
4985;DHT22;2509;49.902;8.600;2022-07-03T03:02:56;18.30;99.90
4985;DHT22;2509;49.902;8.600;2022-07-03T03:06:02;18.30;99.90
4985;DHT22;2509;49.902;8.600;2022-07-03T03:09:08;18.20;99.90
4985;DHT22;2509;49.902;8.600;2022-07-03T03:12:20;18.20;99.90
4985;DHT22;2509;49.902;8.600;2022-07-03T03:15:29;18.20;99.90
4985;DHT22;2509;49.902;8.600;2022-07-03T03:18:34;18.10;99.90
4985;DHT22;2509;49.902;8.600;2022-07-03T03:21:45;18.10;99.90
4985;DHT22;2509;49.902;8.600;2022-07-03T03:24:52;18.10;99.90
4985;DHT22;2509;49.902;8.600;2022-07-03T03:27:54;18.00;99.90
4985;DHT22;2509;49.902;8.600;2022-07-03T03:30:58;18.00;99.90
4985;DHT22;2509;49.902;8.600;2022-07-03T03:34:00;18.00;99.90
4985;DHT22;2509;49.902;8.600;2022-07-03T03:37:03;17.90;99.90
4985;DHT22;2509;49.902;8.600;2022-07-03T03:40:07;17.90;99.90
4985;DHT22;2509;49.902;8.600;2022-07-03T03:43:09;18.00;99.90
4985;DHT22;2509;49.902;8.600;2022-07-03T03:46:12;17.90;99.90
4985;DHT22;2509;49.902;8.600;2022-07-03T03:49:15;17.90;99.90
4985;DHT22;2509;49.902;8.600;2022-07-03T03:52:17;17.90;99.90
4985;DHT22;2509;49.902;8.600;2022-07-03T03:55:19;17.90;99.90
4985;DHT22;2509;49.902;8.600;2022-07-03T03:58:21;17.90;99.90
4985;DHT22;2509;49.902;8.600;2022-07-03T04:01:24;17.90;99.90
4985;DHT22;2509;49.902;8.600;2022-07-03T04:04:26;17.90;99.90
4985;DHT22;2509;49.902;8.600;2022-07-03T04:07:28;17.90;99.90
4985;DHT22;2509;49.902;8.600;2022-07-03T04:10:30;17.90;99.90
4985;DHT22;2509;49.902;8.600;2022-07-03T04:13:32;17.90;99.90
4985;DHT22;2509;49.902;8.600;2022-07-03T04:16:35;17.90;99.90
4985;DHT22;2509;49.902;8.600;2022-07-03T04:19:37;17.90;99.90
4985;DHT22;2509;49.902;8.600;2022-07-03T04:22:39;17.80;99.90
4985;DHT22;2509;49.902;8.600;2022-07-03T04:25:41;17.80;99.90
4985;DHT22;2509;49.902;8.600;2022-07-03T04:28:43;17.90;99.90
4985;DHT22;2509;49.902;8.600;2022-07-03T04:31:47;17.90;99.90
4985;DHT22;2509;49.902;8.600;2022-07-03T04:34:49;17.90;99.90
4985;DHT22;2509;49.902;8.600;2022-07-03T04:37:50;18.00;99.90
4985;DHT22;2509;49.902;8.600;2022-07-03T04:40:52;18.00;99.90
4985;DHT22;2509;49.902;8.600;2022-07-03T04:43:54;18.00;99.90
4985;DHT22;2509;49.902;8.600;2022-07-03T04:46:58;18.00;99.90
4985;DHT22;2509;49.902;8.600;2022-07-03T04:50:00;18.00;99.90
4985;DHT22;2509;49.902;8.600;2022-07-03T04:53:01;18.10;99.90
4985;DHT22;2509;49.902;8.600;2022-07-03T04:56:04;18.10;99.90
4985;DHT22;2509;49.902;8.600;2022-07-03T04:59:06;18.10;99.90
4985;DHT22;2509;49.902;8.600;2022-07-03T05:02:09;18.20;99.90
4985;DHT22;2509;49.902;8.600;2022-07-03T05:05:11;18.20;99.90
4985;DHT22;2509;49.902;8.600;2022-07-03T05:08:13;18.20;99.90
4985;DHT22;2509;49.902;8.600;2022-07-03T05:11:15;18.20;99.90
4985;DHT22;2509;49.902;8.600;2022-07-03T05:14:17;18.30;99.90
4985;DHT22;2509;49.902;8.600;2022-07-03T05:17:21;18.40;99.90
4985;DHT22;2509;49.902;8.600;2022-07-03T05:20:22;18.50;99.90
4985;DHT22;2509;49.902;8.600;2022-07-03T05:23:28;18.60;99.90
4985;DHT22;2509;49.902;8.600;2022-07-03T05:26:47;18.60;99.90
4985;DHT22;2509;49.902;8.600;2022-07-03T05:30:45;18.60;99.90
4985;DHT22;2509;49.902;8.600;2022-07-03T05:33:49;18.70;99.90
4985;DHT22;2509;49.902;8.600;2022-07-03T05:36:51;18.80;99.90
4985;DHT22;2509;49.902;8.600;2022-07-03T05:39:53;18.80;99.90
4985;DHT22;2509;49.902;8.600;2022-07-03T05:42:54;18.90;99.90
4985;DHT22;2509;49.902;8.600;2022-07-03T05:45:56;19.00;99.90
4985;DHT22;2509;49.902;8.600;2022-07-03T05:48:59;19.10;99.90
4985;DHT22;2509;49.902;8.600;2022-07-03T05:52:01;19.30;99.90
4985;DHT22;2509;49.902;8.600;2022-07-03T05:55:04;19.40;99.90
4985;DHT22;2509;49.902;8.600;2022-07-03T05:58:06;19.50;99.90
4985;DHT22;2509;49.902;8.600;2022-07-03T06:01:08;19.60;99.90
4985;DHT22;2509;49.902;8.600;2022-07-03T06:04:11;19.70;99.90
4985;DHT22;2509;49.902;8.600;2022-07-03T06:07:13;19.80;99.90
4985;DHT22;2509;49.902;8.600;2022-07-03T06:10:17;19.80;99.90
4985;DHT22;2509;49.902;8.600;2022-07-03T06:13:18;20.00;99.90
4985;DHT22;2509;49.902;8.600;2022-07-03T06:16:21;20.10;99.90
4985;DHT22;2509;49.902;8.600;2022-07-03T06:19:24;20.20;99.90
4985;DHT22;2509;49.902;8.600;2022-07-03T06:22:26;20.40;99.90
4985;DHT22;2509;49.902;8.600;2022-07-03T06:25:28;20.60;99.90
4985;DHT22;2509;49.902;8.600;2022-07-03T06:28:30;20.70;99.90
4985;DHT22;2509;49.902;8.600;2022-07-03T06:31:32;21.00;99.90
4985;DHT22;2509;49.902;8.600;2022-07-03T06:34:35;21.20;99.90
4985;DHT22;2509;49.902;8.600;2022-07-03T06:37:37;21.40;99.90
4985;DHT22;2509;49.902;8.600;2022-07-03T06:40:38;21.50;99.90
4985;DHT22;2509;49.902;8.600;2022-07-03T06:43:40;21.70;99.90
4985;DHT22;2509;49.902;8.600;2022-07-03T06:46:42;21.80;99.90
4985;DHT22;2509;49.902;8.600;2022-07-03T06:49:45;22.00;99.90
4985;DHT22;2509;49.902;8.600;2022-07-03T06:52:47;22.20;99.90
4985;DHT22;2509;49.902;8.600;2022-07-03T06:55:49;22.30;99.90
4985;DHT22;2509;49.902;8.600;2022-07-03T06:58:51;22.50;99.90
4985;DHT22;2509;49.902;8.600;2022-07-03T07:01:53;22.60;99.90
4985;DHT22;2509;49.902;8.600;2022-07-03T07:04:56;22.70;99.90
4985;DHT22;2509;49.902;8.600;2022-07-03T07:07:58;22.90;99.90
4985;DHT22;2509;49.902;8.600;2022-07-03T07:10:59;23.00;99.90
4985;DHT22;2509;49.902;8.600;2022-07-03T07:14:02;23.10;99.90
4985;DHT22;2509;49.902;8.600;2022-07-03T07:17:04;23.20;99.90
4985;DHT22;2509;49.902;8.600;2022-07-03T07:20:08;23.30;99.90
4985;DHT22;2509;49.902;8.600;2022-07-03T07:23:10;23.40;99.90
4985;DHT22;2509;49.902;8.600;2022-07-03T07:26:12;23.60;99.90
4985;DHT22;2509;49.902;8.600;2022-07-03T07:29:14;23.70;98.30
4985;DHT22;2509;49.902;8.600;2022-07-03T07:32:16;23.80;97.90
4985;DHT22;2509;49.902;8.600;2022-07-03T07:35:20;24.00;98.00
4985;DHT22;2509;49.902;8.600;2022-07-03T07:38:24;24.20;97.60
4985;DHT22;2509;49.902;8.600;2022-07-03T07:41:26;24.20;97.00
4985;DHT22;2509;49.902;8.600;2022-07-03T07:44:28;24.40;97.40
4985;DHT22;2509;49.902;8.600;2022-07-03T07:47:30;24.40;96.50
4985;DHT22;2509;49.902;8.600;2022-07-03T07:50:34;24.40;96.30
4985;DHT22;2509;49.902;8.600;2022-07-03T07:53:40;24.50;96.50
4985;DHT22;2509;49.902;8.600;2022-07-03T07:56:42;24.70;95.80
4985;DHT22;2509;49.902;8.600;2022-07-03T07:59:44;24.90;94.90
4985;DHT22;2509;49.902;8.600;2022-07-03T08:02:46;25.10;94.80
4985;DHT22;2509;49.902;8.600;2022-07-03T08:06:07;25.20;94.00
4985;DHT22;2509;49.902;8.600;2022-07-03T08:09:09;25.30;93.60
4985;DHT22;2509;49.902;8.600;2022-07-03T08:12:11;25.50;92.80
4985;DHT22;2509;49.902;8.600;2022-07-03T08:15:12;25.70;91.50
4985;DHT22;2509;49.902;8.600;2022-07-03T08:18:14;25.60;91.30
4985;DHT22;2509;49.902;8.600;2022-07-03T08:21:17;25.70;92.10
4985;DHT22;2509;49.902;8.600;2022-07-03T08:24:19;25.90;91.10
4985;DHT22;2509;49.902;8.600;2022-07-03T08:27:21;26.20;91.20
4985;DHT22;2509;49.902;8.600;2022-07-03T08:30:23;26.50;89.80
4985;DHT22;2509;49.902;8.600;2022-07-03T08:33:24;26.50;89.60
4985;DHT22;2509;49.902;8.600;2022-07-03T08:36:27;26.60;88.90
4985;DHT22;2509;49.902;8.600;2022-07-03T08:39:29;26.60;89.30
4985;DHT22;2509;49.902;8.600;2022-07-03T08:42:32;26.70;89.60
4985;DHT22;2509;49.902;8.600;2022-07-03T08:45:37;27.00;88.80
4985;DHT22;2509;49.902;8.600;2022-07-03T08:48:40;27.20;88.10
4985;DHT22;2509;49.902;8.600;2022-07-03T08:51:45;27.10;87.80
4985;DHT22;2509;49.902;8.600;2022-07-03T08:54:47;27.10;89.40
4985;DHT22;2509;49.902;8.600;2022-07-03T08:57:48;27.30;87.90
4985;DHT22;2509;49.902;8.600;2022-07-03T09:00:51;27.40;87.50
4985;DHT22;2509;49.902;8.600;2022-07-03T09:03:53;27.60;87.20
4985;DHT22;2509;49.902;8.600;2022-07-03T09:06:59;27.80;86.40
4985;DHT22;2509;49.902;8.600;2022-07-03T09:10:01;27.90;85.70
4985;DHT22;2509;49.902;8.600;2022-07-03T09:13:03;27.80;85.60
4985;DHT22;2509;49.902;8.600;2022-07-03T09:16:05;28.10;85.10
4985;DHT22;2509;49.902;8.600;2022-07-03T09:19:15;28.40;85.00
4985;DHT22;2509;49.902;8.600;2022-07-03T09:22:22;28.50;84.80
4985;DHT22;2509;49.902;8.600;2022-07-03T09:25:24;28.30;84.50
4985;DHT22;2509;49.902;8.600;2022-07-03T09:28:42;28.50;83.80
4985;DHT22;2509;49.902;8.600;2022-07-03T09:31:53;28.70;83.00
4985;DHT22;2509;49.902;8.600;2022-07-03T09:35:16;28.80;83.40
4985;DHT22;2509;49.902;8.600;2022-07-03T09:38:21;28.80;82.00
4985;DHT22;2509;49.902;8.600;2022-07-03T09:41:22;29.00;81.90
4985;DHT22;2509;49.902;8.600;2022-07-03T09:44:36;29.30;81.60
4985;DHT22;2509;49.902;8.600;2022-07-03T09:47:38;29.30;82.10
4985;DHT22;2509;49.902;8.600;2022-07-03T09:50:39;29.30;81.90
4985;DHT22;2509;49.902;8.600;2022-07-03T09:53:47;29.40;81.50
4985;DHT22;2509;49.902;8.600;2022-07-03T09:56:49;29.40;81.80
4985;DHT22;2509;49.902;8.600;2022-07-03T10:00:08;29.50;79.80
4985;DHT22;2509;49.902;8.600;2022-07-03T10:03:11;29.60;79.20
4985;DHT22;2509;49.902;8.600;2022-07-03T10:06:13;29.70;80.30
4985;DHT22;2509;49.902;8.600;2022-07-03T10:09:18;30.00;78.40
4985;DHT22;2509;49.902;8.600;2022-07-03T10:12:20;30.10;79.40
4985;DHT22;2509;49.902;8.600;2022-07-03T10:15:23;30.10;79.90
4985;DHT22;2509;49.902;8.600;2022-07-03T10:18:29;30.00;79.60
4985;DHT22;2509;49.902;8.600;2022-07-03T10:21:32;30.10;80.00
4985;DHT22;2509;49.902;8.600;2022-07-03T10:24:36;30.20;79.40
4985;DHT22;2509;49.902;8.600;2022-07-03T10:27:38;30.50;77.90
4985;DHT22;2509;49.902;8.600;2022-07-03T10:30:43;30.50;77.90
4985;DHT22;2509;49.902;8.600;2022-07-03T10:33:46;30.60;77.40
4985;DHT22;2509;49.902;8.600;2022-07-03T10:36:51;30.70;76.80
4985;DHT22;2509;49.902;8.600;2022-07-03T10:39:58;30.70;76.50
4985;DHT22;2509;49.902;8.600;2022-07-03T10:43:25;31.10;75.90
4985;DHT22;2509;49.902;8.600;2022-07-03T10:46:45;31.50;75.60
4985;DHT22;2509;49.902;8.600;2022-07-03T10:50:00;31.40;75.70
4985;DHT22;2509;49.902;8.600;2022-07-03T10:53:23;31.50;75.40
4985;DHT22;2509;49.902;8.600;2022-07-03T10:56:26;31.80;76.20
4985;DHT22;2509;49.902;8.600;2022-07-03T11:03:51;32.00;73.90
4985;DHT22;2509;49.902;8.600;2022-07-03T11:07:09;31.90;74.90
4985;DHT22;2509;49.902;8.600;2022-07-03T11:10:35;32.10;74.10
4985;DHT22;2509;49.902;8.600;2022-07-03T11:17:16;32.10;73.60
4985;DHT22;2509;49.902;8.600;2022-07-03T11:20:25;32.40;72.70
4985;DHT22;2509;49.902;8.600;2022-07-03T11:23:33;32.80;71.90
4985;DHT22;2509;49.902;8.600;2022-07-03T11:26:36;33.20;71.30
4985;DHT22;2509;49.902;8.600;2022-07-03T11:29:38;33.50;70.10
4985;DHT22;2509;49.902;8.600;2022-07-03T11:32:48;33.70;68.70
4985;DHT22;2509;49.902;8.600;2022-07-03T11:35:52;34.10;67.20
4985;DHT22;2509;49.902;8.600;2022-07-03T11:39:09;34.20;65.30
4985;DHT22;2509;49.902;8.600;2022-07-03T11:42:13;34.60;64.90
4985;DHT22;2509;49.902;8.600;2022-07-03T11:45:15;33.60;66.00
4985;DHT22;2509;49.902;8.600;2022-07-03T11:48:18;33.10;67.50
4985;DHT22;2509;49.902;8.600;2022-07-03T11:51:20;33.70;66.30
4985;DHT22;2509;49.902;8.600;2022-07-03T11:54:24;34.10;65.70
4985;DHT22;2509;49.902;8.600;2022-07-03T11:57:26;33.50;66.10
4985;DHT22;2509;49.902;8.600;2022-07-03T12:00:29;33.80;65.70
4985;DHT22;2509;49.902;8.600;2022-07-03T12:03:31;34.60;64.70
4985;DHT22;2509;49.902;8.600;2022-07-03T12:06:34;35.50;62.90
4985;DHT22;2509;49.902;8.600;2022-07-03T12:09:37;35.90;62.80
4985;DHT22;2509;49.902;8.600;2022-07-03T12:12:39;36.70;62.80
4985;DHT22;2509;49.902;8.600;2022-07-03T12:15:41;36.80;61.60
4985;DHT22;2509;49.902;8.600;2022-07-03T12:18:44;36.70;61.20
4985;DHT22;2509;49.902;8.600;2022-07-03T12:21:46;36.30;61.30
4985;DHT22;2509;49.902;8.600;2022-07-03T12:24:56;36.60;61.60
4985;DHT22;2509;49.902;8.600;2022-07-03T12:27:58;37.40;60.70
4985;DHT22;2509;49.902;8.600;2022-07-03T12:31:00;37.70;59.30
4985;DHT22;2509;49.902;8.600;2022-07-03T12:34:03;38.20;59.90
4985;DHT22;2509;49.902;8.600;2022-07-03T12:37:05;38.50;58.10
4985;DHT22;2509;49.902;8.600;2022-07-03T12:40:10;38.30;58.20
4985;DHT22;2509;49.902;8.600;2022-07-03T12:43:12;38.00;57.90
4985;DHT22;2509;49.902;8.600;2022-07-03T12:46:19;36.90;59.00
4985;DHT22;2509;49.902;8.600;2022-07-03T12:49:21;36.80;60.20
4985;DHT22;2509;49.902;8.600;2022-07-03T12:52:23;37.30;59.50
4985;DHT22;2509;49.902;8.600;2022-07-03T12:55:27;36.40;60.00
4985;DHT22;2509;49.902;8.600;2022-07-03T12:58:29;37.10;60.50
4985;DHT22;2509;49.902;8.600;2022-07-03T13:02:00;37.70;59.40
4985;DHT22;2509;49.902;8.600;2022-07-03T13:05:15;38.70;57.60
4985;DHT22;2509;49.902;8.600;2022-07-03T13:08:17;38.60;57.80
4985;DHT22;2509;49.902;8.600;2022-07-03T13:11:28;38.70;58.20
4985;DHT22;2509;49.902;8.600;2022-07-03T13:14:30;38.50;57.70
4985;DHT22;2509;49.902;8.600;2022-07-03T13:18:05;39.00;57.20
4985;DHT22;2509;49.902;8.600;2022-07-03T13:21:07;39.10;56.80
4985;DHT22;2509;49.902;8.600;2022-07-03T13:24:09;39.00;57.80
4985;DHT22;2509;49.902;8.600;2022-07-03T13:27:13;39.10;57.20
4985;DHT22;2509;49.902;8.600;2022-07-03T13:30:15;39.10;57.20
4985;DHT22;2509;49.902;8.600;2022-07-03T13:33:17;39.50;56.50
4985;DHT22;2509;49.902;8.600;2022-07-03T13:36:19;39.50;55.80
4985;DHT22;2509;49.902;8.600;2022-07-03T13:39:21;39.80;55.90
4985;DHT22;2509;49.902;8.600;2022-07-03T13:42:24;39.50;56.00
4985;DHT22;2509;49.902;8.600;2022-07-03T13:45:26;39.00;56.40
4985;DHT22;2509;49.902;8.600;2022-07-03T13:48:28;38.80;56.10
4985;DHT22;2509;49.902;8.600;2022-07-03T13:51:31;38.30;56.90
4985;DHT22;2509;49.902;8.600;2022-07-03T13:54:33;38.50;56.90
4985;DHT22;2509;49.902;8.600;2022-07-03T13:57:36;38.70;55.90
4985;DHT22;2509;49.902;8.600;2022-07-03T14:00:39;39.00;56.00
4985;DHT22;2509;49.902;8.600;2022-07-03T14:03:40;39.20;55.60
4985;DHT22;2509;49.902;8.600;2022-07-03T14:06:42;38.00;57.10
4985;DHT22;2509;49.902;8.600;2022-07-03T14:09:44;38.80;56.70
4985;DHT22;2509;49.902;8.600;2022-07-03T14:12:47;39.70;55.50
4985;DHT22;2509;49.902;8.600;2022-07-03T14:15:49;39.90;55.80
4985;DHT22;2509;49.902;8.600;2022-07-03T14:18:51;40.30;54.90
4985;DHT22;2509;49.902;8.600;2022-07-03T14:21:53;40.60;53.90
4985;DHT22;2509;49.902;8.600;2022-07-03T14:24:55;40.30;54.50
4985;DHT22;2509;49.902;8.600;2022-07-03T14:27:58;39.00;55.30
4985;DHT22;2509;49.902;8.600;2022-07-03T14:31:17;38.70;55.10
4985;DHT22;2509;49.902;8.600;2022-07-03T14:34:36;39.40;54.80
4985;DHT22;2509;49.902;8.600;2022-07-03T14:37:38;39.10;54.70
4985;DHT22;2509;49.902;8.600;2022-07-03T14:40:40;38.70;55.50
4985;DHT22;2509;49.902;8.600;2022-07-03T14:43:43;39.00;54.30
4985;DHT22;2509;49.902;8.600;2022-07-03T14:46:45;37.90;55.40
4985;DHT22;2509;49.902;8.600;2022-07-03T14:49:47;37.00;56.40
4985;DHT22;2509;49.902;8.600;2022-07-03T14:52:49;36.70;57.50
4985;DHT22;2509;49.902;8.600;2022-07-03T14:55:50;37.60;56.50
4985;DHT22;2509;49.902;8.600;2022-07-03T14:59:00;38.10;55.60
4985;DHT22;2509;49.902;8.600;2022-07-03T15:02:06;37.40;55.30
4985;DHT22;2509;49.902;8.600;2022-07-03T15:05:15;37.90;55.70
4985;DHT22;2509;49.902;8.600;2022-07-03T15:11:53;39.10;54.80
4985;DHT22;2509;49.902;8.600;2022-07-03T15:15:15;38.60;55.60
4985;DHT22;2509;49.902;8.600;2022-07-03T15:18:18;37.70;55.50
4985;DHT22;2509;49.902;8.600;2022-07-03T15:21:21;36.60;56.30
4985;DHT22;2509;49.902;8.600;2022-07-03T15:24:24;35.90;57.70
4985;DHT22;2509;49.902;8.600;2022-07-03T15:27:28;37.00;57.10
4985;DHT22;2509;49.902;8.600;2022-07-03T15:30:31;38.00;55.80
4985;DHT22;2509;49.902;8.600;2022-07-03T15:33:33;38.60;55.40
4985;DHT22;2509;49.902;8.600;2022-07-03T15:36:44;38.70;54.90
4985;DHT22;2509;49.902;8.600;2022-07-03T15:39:52;38.70;53.90
4985;DHT22;2509;49.902;8.600;2022-07-03T15:43:09;39.20;53.50
4985;DHT22;2509;49.902;8.600;2022-07-03T15:46:22;40.10;53.00
4985;DHT22;2509;49.902;8.600;2022-07-03T15:49:28;40.50;52.10
4985;DHT22;2509;49.902;8.600;2022-07-03T15:52:30;40.30;52.60
4985;DHT22;2509;49.902;8.600;2022-07-03T15:55:35;39.70;53.00
4985;DHT22;2509;49.902;8.600;2022-07-03T15:58:47;39.40;52.90
4985;DHT22;2509;49.902;8.600;2022-07-03T16:01:54;38.60;53.80
4985;DHT22;2509;49.902;8.600;2022-07-03T16:05:18;37.90;55.20
4985;DHT22;2509;49.902;8.600;2022-07-03T16:08:20;37.10;55.90
4985;DHT22;2509;49.902;8.600;2022-07-03T16:11:22;36.50;56.60
4985;DHT22;2509;49.902;8.600;2022-07-03T16:14:29;35.60;57.70
4985;DHT22;2509;49.902;8.600;2022-07-03T16:17:33;35.20;58.20
4985;DHT22;2509;49.902;8.600;2022-07-03T16:20:36;35.30;59.00
4985;DHT22;2509;49.902;8.600;2022-07-03T16:23:38;34.80;58.30
4985;DHT22;2509;49.902;8.600;2022-07-03T16:26:40;34.30;59.20
4985;DHT22;2509;49.902;8.600;2022-07-03T16:29:43;33.90;59.60
4985;DHT22;2509;49.902;8.600;2022-07-03T16:32:46;33.70;60.60
4985;DHT22;2509;49.902;8.600;2022-07-03T16:35:53;33.50;60.10
4985;DHT22;2509;49.902;8.600;2022-07-03T16:39:00;33.30;60.60
4985;DHT22;2509;49.902;8.600;2022-07-03T16:42:04;33.10;61.20
4985;DHT22;2509;49.902;8.600;2022-07-03T16:45:08;32.80;60.90
4985;DHT22;2509;49.902;8.600;2022-07-03T16:48:14;32.80;61.60
4985;DHT22;2509;49.902;8.600;2022-07-03T16:51:17;32.80;61.30
4985;DHT22;2509;49.902;8.600;2022-07-03T16:54:20;32.80;61.90
4985;DHT22;2509;49.902;8.600;2022-07-03T16:57:23;32.60;61.80
4985;DHT22;2509;49.902;8.600;2022-07-03T17:00:27;32.50;62.00
4985;DHT22;2509;49.902;8.600;2022-07-03T17:03:30;32.20;62.50
4985;DHT22;2509;49.902;8.600;2022-07-03T17:06:34;32.10;62.60
4985;DHT22;2509;49.902;8.600;2022-07-03T17:09:36;32.00;63.20
4985;DHT22;2509;49.902;8.600;2022-07-03T17:12:41;31.90;63.30
4985;DHT22;2509;49.902;8.600;2022-07-03T17:15:45;31.70;64.70
4985;DHT22;2509;49.902;8.600;2022-07-03T17:18:50;31.30;71.70
4985;DHT22;2509;49.902;8.600;2022-07-03T17:21:52;30.10;72.30
4985;DHT22;2509;49.902;8.600;2022-07-03T17:24:57;29.50;71.20
4985;DHT22;2509;49.902;8.600;2022-07-03T17:28:00;29.40;68.50
4985;DHT22;2509;49.902;8.600;2022-07-03T17:31:04;29.20;74.60
4985;DHT22;2509;49.902;8.600;2022-07-03T17:34:09;29.00;75.60
4985;DHT22;2509;49.902;8.600;2022-07-03T17:37:14;28.90;72.50
4985;DHT22;2509;49.902;8.600;2022-07-03T17:40:18;28.70;73.60
4985;DHT22;2509;49.902;8.600;2022-07-03T17:43:20;28.60;72.30
4985;DHT22;2509;49.902;8.600;2022-07-03T17:46:23;28.50;74.80
4985;DHT22;2509;49.902;8.600;2022-07-03T17:49:26;28.40;73.20
4985;DHT22;2509;49.902;8.600;2022-07-03T17:52:31;28.40;73.10
4985;DHT22;2509;49.902;8.600;2022-07-03T17:55:33;28.50;74.40
4985;DHT22;2509;49.902;8.600;2022-07-03T17:58:39;28.50;75.50
4985;DHT22;2509;49.902;8.600;2022-07-03T18:01:41;28.30;73.40
4985;DHT22;2509;49.902;8.600;2022-07-03T18:04:44;28.30;74.60
4985;DHT22;2509;49.902;8.600;2022-07-03T18:07:53;28.30;72.40
4985;DHT22;2509;49.902;8.600;2022-07-03T18:11:02;28.30;72.70
4985;DHT22;2509;49.902;8.600;2022-07-03T18:14:05;28.30;71.60
4985;DHT22;2509;49.902;8.600;2022-07-03T18:17:12;28.30;71.60
4985;DHT22;2509;49.902;8.600;2022-07-03T18:20:17;28.30;71.60
4985;DHT22;2509;49.902;8.600;2022-07-03T18:23:23;28.20;72.30
4985;DHT22;2509;49.902;8.600;2022-07-03T18:26:38;28.10;72.80
4985;DHT22;2509;49.902;8.600;2022-07-03T18:29:42;28.10;73.60
4985;DHT22;2509;49.902;8.600;2022-07-03T18:32:46;28.00;73.90
4985;DHT22;2509;49.902;8.600;2022-07-03T18:35:50;28.00;73.70
4985;DHT22;2509;49.902;8.600;2022-07-03T18:38:52;27.90;74.80
4985;DHT22;2509;49.902;8.600;2022-07-03T18:41:55;27.80;76.20
4985;DHT22;2509;49.902;8.600;2022-07-03T18:44:58;27.80;74.70
4985;DHT22;2509;49.902;8.600;2022-07-03T18:48:01;27.70;74.70
4985;DHT22;2509;49.902;8.600;2022-07-03T18:51:08;27.70;75.40
4985;DHT22;2509;49.902;8.600;2022-07-03T18:54:17;27.60;75.90
4985;DHT22;2509;49.902;8.600;2022-07-03T18:57:28;27.50;75.90
4985;DHT22;2509;49.902;8.600;2022-07-03T19:00:36;27.50;76.20
4985;DHT22;2509;49.902;8.600;2022-07-03T19:03:48;27.50;76.20
4985;DHT22;2509;49.902;8.600;2022-07-03T19:06:58;27.40;76.20
4985;DHT22;2509;49.902;8.600;2022-07-03T19:10:03;27.40;76.10
4985;DHT22;2509;49.902;8.600;2022-07-03T19:13:07;27.40;76.20
4985;DHT22;2509;49.902;8.600;2022-07-03T19:16:14;27.40;78.90
4985;DHT22;2509;49.902;8.600;2022-07-03T19:19:16;27.20;78.90
4985;DHT22;2509;49.902;8.600;2022-07-03T19:22:20;27.10;79.90
4985;DHT22;2509;49.902;8.600;2022-07-03T19:25:22;26.90;80.30
4985;DHT22;2509;49.902;8.600;2022-07-03T19:28:24;26.90;80.80
4985;DHT22;2509;49.902;8.600;2022-07-03T19:31:26;26.80;81.10
4985;DHT22;2509;49.902;8.600;2022-07-03T19:34:28;26.70;83.60
4985;DHT22;2509;49.902;8.600;2022-07-03T19:37:31;26.60;82.70
4985;DHT22;2509;49.902;8.600;2022-07-03T19:40:33;26.50;84.30
4985;DHT22;2509;49.902;8.600;2022-07-03T19:43:35;26.40;84.50
4985;DHT22;2509;49.902;8.600;2022-07-03T19:46:36;26.30;85.30
4985;DHT22;2509;49.902;8.600;2022-07-03T19:49:38;26.20;86.20
4985;DHT22;2509;49.902;8.600;2022-07-03T19:52:41;26.10;86.60
4985;DHT22;2509;49.902;8.600;2022-07-03T19:55:43;26.00;87.20
4985;DHT22;2509;49.902;8.600;2022-07-03T19:58:45;25.90;87.80
4985;DHT22;2509;49.902;8.600;2022-07-03T20:01:46;25.80;88.00
4985;DHT22;2509;49.902;8.600;2022-07-03T20:04:48;25.70;88.80
4985;DHT22;2509;49.902;8.600;2022-07-03T20:07:51;25.60;88.90
4985;DHT22;2509;49.902;8.600;2022-07-03T20:10:53;25.60;90.00
4985;DHT22;2509;49.902;8.600;2022-07-03T20:13:55;25.50;89.60
4985;DHT22;2509;49.902;8.600;2022-07-03T20:16:57;25.40;89.80
4985;DHT22;2509;49.902;8.600;2022-07-03T20:20:01;25.30;90.70
4985;DHT22;2509;49.902;8.600;2022-07-03T20:23:04;25.20;90.80